Time;durP1;ratioP1;P1;durP2;ratioP2;P2;SDS_P1;SDS_P2;PMS_P1;PMS_P2;Temp;Humidity;BMP_temperature;BMP_pressure;BME280_temperature;BME280_humidity;BME280_pressure;Samples;Min_cycle;Max_cycle;Signal;HPM_P1;HPM_P2
2023/07/30 00:03:09;;;;;;;1.93;1.70;;;;;;;21.98;74.22;98277.50;5164270;27;41919;-76
2023/07/30 00:05:37;;;;;;;1.93;1.77;;;;;;;21.92;74.48;98279.06;5176502;27;42818;-76
2023/07/30 00:08:06;;;;;;;1.80;1.53;;;;;;;21.89;75.11;98287.50;5140323;27;41065;-76
2023/07/30 00:10:36;;;;;;;1.57;1.47;;;;;;;21.82;76.33;98289.25;5139577;27;41291;-76
2023/07/30 00:13:03;;;;;;;1.80;1.70;;;;;;;21.77;76.66;98292.47;5156192;27;41830;-76
2023/07/30 00:15:31;;;;;;;1.67;1.53;;;;;;;21.74;77.76;98287.47;5139234;27;41661;-77
2023/07/30 00:17:58;;;;;;;2.60;2.20;;;;;;;21.70;78.33;98269.13;5138894;27;41870;-77
2023/07/30 00:20:26;;;;;;;2.87;1.40;;;;;;;21.67;78.54;98281.09;5138937;27;39608;-77
2023/07/30 00:22:53;;;;;;;1.50;1.13;;;;;;;21.62;78.38;98275.44;5121737;27;43117;-78
2023/07/30 00:25:23;;;;;;;1.60;1.50;;;;;;;21.52;79.06;98283.72;5138849;27;42772;-77
2023/07/30 00:27:50;;;;;;;2.30;1.23;;;;;;;21.39;79.37;98282.63;5138642;27;42221;-78
2023/07/30 00:30:18;;;;;;;1.43;1.33;;;;;;;21.21;78.34;98279.41;5139241;27;40961;-77
2023/07/30 00:32:46;;;;;;;1.00;1.00;;;;;;;21.12;78.44;98271.34;5138784;27;41762;-77
2023/07/30 00:35:13;;;;;;;1.30;1.20;;;;;;;21.04;78.32;98268.69;5156155;27;41986;-77
2023/07/30 00:37:41;;;;;;;1.20;0.97;;;;;;;20.99;78.03;98263.00;5156300;27;43509;-77
2023/07/30 00:40:09;;;;;;;0.87;0.80;;;;;;;20.94;78.05;98262.69;5156233;27;39834;-78
2023/07/30 00:42:39;;;;;;;1.00;0.90;;;;;;;20.93;78.12;98271.75;5175370;27;41717;-77
2023/07/30 00:45:07;;;;;;;1.03;0.77;;;;;;;20.93;77.82;98285.22;5156851;27;42494;-77
2023/07/30 00:47:35;;;;;;;0.73;0.73;;;;;;;20.88;76.77;98295.69;5156852;27;41241;-77
2023/07/30 00:50:04;;;;;;;1.13;0.97;;;;;;;20.84;76.49;98294.34;5157001;27;40809;-77
2023/07/30 00:52:33;;;;;;;0.70;0.70;;;;;;;20.69;76.27;98278.09;5156773;27;41668;-78
2023/07/30 00:55:03;;;;;;;0.87;0.80;;;;;;;20.82;76.00;98309.84;5156020;27;41422;-77
2023/07/30 00:57:32;;;;;;;1.17;1.03;;;;;;;20.81;76.16;98316.22;5139362;27;42631;-77
2023/07/30 01:00:04;;;;;;;1.20;0.90;;;;;;;20.59;75.62;98282.00;5139383;27;39891;-77
2023/07/30 01:02:32;;;;;;;0.60;0.60;;;;;;;20.77;75.66;98317.59;5139244;27;41476;-78
2023/07/30 01:05:03;;;;;;;1.00;0.90;;;;;;;20.75;75.49;98312.41;5139272;27;41769;-78
2023/07/30 01:07:31;;;;;;;0.80;0.80;;;;;;;20.73;75.26;98313.56;5139170;27;42535;-77
2023/07/30 01:09:58;;;;;;;0.70;0.70;;;;;;;20.74;75.56;98326.88;5155250;27;40775;-77
2023/07/30 01:12:27;;;;;;;0.83;0.83;;;;;;;20.73;75.29;98335.94;5137696;27;40678;-77
2023/07/30 01:14:56;;;;;;;0.70;0.70;;;;;;;20.66;75.30;98331.41;5155606;27;43772;-77
2023/07/30 01:17:26;;;;;;;1.30;0.90;;;;;;;20.73;75.12;98341.31;5138376;27;43218;-78
2023/07/30 01:19:55;;;;;;;1.00;0.90;;;;;;;20.57;75.59;98316.31;5138271;27;40103;-77
2023/07/30 01:22:25;;;;;;;1.40;0.80;;;;;;;20.77;75.33;98341.81;5173973;27;41499;-77
2023/07/30 01:24:53;;;;;;;0.90;0.80;;;;;;;20.77;75.37;98347.22;5155606;27;43858;-77
2023/07/30 01:27:26;;;;;;;1.07;0.80;;;;;;;20.77;75.12;98342.63;5155229;27;42863;-78
2023/07/30 01:29:58;;;;;;;0.90;0.80;;;;;;;20.79;75.53;98343.31;5155757;27;41205;-78
2023/07/30 01:32:28;;;;;;;1.17;0.80;;;;;;;20.78;75.20;98355.09;5137866;27;40417;-78
2023/07/30 01:34:58;;;;;;;0.80;0.80;;;;;;;20.78;74.77;98356.94;5137852;27;42892;-78
2023/07/30 01:37:29;;;;;;;0.73;0.50;;;;;;;20.73;74.94;98351.25;5138020;27;42920;-77
2023/07/30 01:39:57;;;;;;;1.23;0.70;;;;;;;20.49;74.49;98319.03;5155565;27;41181;-78
2023/07/30 01:42:29;;;;;;;0.60;0.60;;;;;;;20.64;74.07;98352.28;5121060;27;40890;-78
2023/07/30 01:44:57;;;;;;;0.60;0.60;;;;;;;20.73;74.23;98362.00;5175206;27;42505;-77
2023/07/30 01:58:54;;;;;;;1.93;1.00;;;;;;;20.63;76.05;98345.22;5171253;27;43287;-77
2023/07/30 02:01:23;;;;;;;1.80;1.03;;;;;;;20.61;76.11;98339.16;5153751;27;41959;-76
2023/07/30 02:03:51;;;;;;;1.80;1.13;;;;;;;20.58;76.48;98337.66;5155407;27;42518;-75
2023/07/30 02:06:18;;;;;;;1.00;0.90;;;;;;;20.59;76.43;98333.13;5174237;27;41829;-78
2023/07/30 02:08:46;;;;;;;1.50;0.90;;;;;;;20.57;76.38;98335.13;5154860;27;43754;-77
2023/07/30 02:11:14;;;;;;;0.87;0.87;;;;;;;20.53;76.57;98333.78;5153487;27;42353;-78
2023/07/30 02:13:42;;;;;;;2.07;0.90;;;;;;;20.50;76.43;98331.47;5137288;27;40903;-78
2023/07/30 02:16:10;;;;;;;1.43;1.00;;;;;;;20.50;76.72;98328.78;5136983;27;41547;-77
2023/07/30 02:18:39;;;;;;;1.00;0.87;;;;;;;20.42;77.07;98327.75;5172942;27;43844;-77
2023/07/30 02:21:07;;;;;;;2.17;1.10;;;;;;;20.42;77.06;98326.91;5136891;27;41007;-77
2023/07/30 02:23:34;;;;;;;0.90;0.90;;;;;;;20.35;77.84;98307.94;5154643;27;40451;-77
2023/07/30 02:26:02;;;;;;;0.97;0.90;;;;;;;20.40;77.83;98313.63;5154443;27;40783;-78
2023/07/30 02:28:30;;;;;;;1.20;0.93;;;;;;;20.39;78.56;98319.22;5137400;27;43047;-77
2023/07/30 02:30:58;;;;;;;0.90;0.77;;;;;;;20.29;78.02;98311.28;5136952;27;41231;-77
2023/07/30 02:33:26;;;;;;;1.10;1.00;;;;;;;20.33;78.49;98328.75;5172286;27;40306;-77
2023/07/30 02:35:55;;;;;;;1.23;0.80;;;;;;;20.30;78.97;98329.09;5154314;27;40712;-78
2023/07/30 02:38:23;;;;;;;1.80;1.10;;;;;;;20.25;79.18;98339.53;5136979;27;41775;-77
2023/07/30 02:40:51;;;;;;;2.97;1.00;;;;;;;20.23;79.68;98338.03;5154649;27;41146;-77
2023/07/30 02:43:18;;;;;;;1.10;1.00;;;;;;;20.04;79.43;98309.63;5155499;27;40937;-77
2023/07/30 02:45:48;;;;;;;1.10;0.90;;;;;;;20.19;79.85;98337.50;5155112;27;40729;-77
2023/07/30 02:48:16;;;;;;;1.47;1.10;;;;;;;20.19;79.69;98353.66;5137977;27;42160;-79
2023/07/30 02:50:45;;;;;;;1.20;1.10;;;;;;;20.13;79.81;98337.38;5137754;27;42396;-77
2023/07/30 02:53:14;;;;;;;1.37;0.90;;;;;;;20.12;80.08;98338.38;5137878;27;39773;-77
2023/07/30 02:55:42;;;;;;;0.73;0.70;;;;;;;20.15;79.88;98346.09;5137892;27;40953;-78
2023/07/30 02:58:09;;;;;;;1.20;1.00;;;;;;;20.09;79.98;98334.16;5155405;27;43011;-75
2023/07/30 03:00:37;;;;;;;1.20;1.03;;;;;;;20.12;80.98;98335.69;5137309;27;41165;-74
2023/07/30 03:03:06;;;;;;;1.30;1.20;;;;;;;20.17;80.72;98350.28;5138852;27;20259;-75
2023/07/30 03:05:34;;;;;;;1.53;1.10;;;;;;;20.18;81.08;98351.97;5154011;27;41865;-75
2023/07/30 03:08:02;;;;;;;1.20;1.10;;;;;;;20.19;80.93;98359.03;5154231;27;42942;-75
2023/07/30 03:10:31;;;;;;;1.93;1.73;;;;;;;20.23;81.34;98349.63;5135809;27;40856;-76
2023/07/30 03:12:59;;;;;;;1.43;1.30;;;;;;;20.22;81.96;98347.94;5136313;27;40053;-75
2023/07/30 03:15:28;;;;;;;2.20;1.37;;;;;;;20.27;82.12;98350.13;5136276;27;41957;-75
2023/07/30 03:17:55;;;;;;;1.30;1.20;;;;;;;20.28;82.31;98352.63;5136550;27;41761;-75
2023/07/30 03:20:23;;;;;;;1.30;1.20;;;;;;;20.25;82.44;98352.97;5157089;27;41493;-75
2023/07/30 03:22:51;;;;;;;1.70;1.40;;;;;;;20.31;82.97;98360.34;5157569;27;40968;-75
2023/07/30 03:25:19;;;;;;;2.50;1.47;;;;;;;20.33;83.92;98358.34;5174054;27;42911;-76
2023/07/30 03:27:48;;;;;;;1.70;1.60;;;;;;;20.36;83.41;98365.28;5157081;27;43243;-75
2023/07/30 03:30:16;;;;;;;1.63;1.30;;;;;;;20.30;83.38;98353.28;5157211;27;42696;-75
2023/07/30 03:32:44;;;;;;;1.30;1.20;;;;;;;20.40;83.42;98361.22;5139944;27;39824;-76
2023/07/30 03:35:12;;;;;;;1.67;1.30;;;;;;;20.40;83.59;98371.97;5139605;27;40966;-75
2023/07/30 03:37:39;;;;;;;2.70;1.50;;;;;;;20.38;84.19;98352.50;5139619;27;41773;-76
2023/07/30 03:40:09;;;;;;;1.77;1.50;;;;;;;20.39;84.08;98365.78;5139615;27;41295;-75
2023/07/30 03:42:37;;;;;;;1.40;1.30;;;;;;;20.39;84.01;98368.47;5140878;27;41077;-78
2023/07/30 03:45:08;;;;;;;2.00;1.30;;;;;;;20.29;83.95;98354.31;5157833;27;41241;-75
2023/07/30 03:47:36;;;;;;;2.07;1.30;;;;;;;20.39;83.66;98367.63;5157673;27;42220;-75
2023/07/30 03:50:04;;;;;;;1.43;1.33;;;;;;;20.39;83.71;98371.16;5157631;27;42196;-75
2023/07/30 03:52:31;;;;;;;1.40;1.30;;;;;;;20.39;84.14;98373.00;5123569;27;40268;-76
2023/07/30 03:54:59;;;;;;;1.40;1.30;;;;;;;20.38;84.35;98369.47;5140371;27;42231;-76
2023/07/30 03:57:27;;;;;;;1.60;1.50;;;;;;;20.35;84.91;98364.44;5175296;27;42691;-76
2023/07/30 03:59:55;;;;;;;1.30;1.20;;;;;;;20.36;85.54;98374.19;5157200;27;42299;-76
2023/07/30 04:02:24;;;;;;;3.17;1.40;;;;;;;20.30;86.04;98366.75;5140310;27;39397;-75
2023/07/30 04:04:52;;;;;;;2.10;1.40;;;;;;;20.39;85.59;98379.22;5140234;27;40735;-75
2023/07/30 04:07:19;;;;;;;1.90;1.50;;;;;;;20.41;85.43;98387.09;5157783;27;41677;-76
2023/07/30 04:09:48;;;;;;;1.60;1.50;;;;;;;20.43;85.18;98387.78;5156523;27;43301;-76
2023/07/30 04:12:19;;;;;;;1.53;1.37;;;;;;;20.41;85.44;98377.19;5138714;27;40794;-76
2023/07/30 04:14:46;;;;;;;2.00;1.50;;;;;;;20.48;85.26;98380.06;5156395;27;42439;-75
2023/07/30 04:17:14;;;;;;;1.40;1.30;;;;;;;20.48;85.08;98384.59;5157247;27;41700;-76
2023/07/30 04:19:43;;;;;;;1.73;1.40;;;;;;;20.38;85.05;98364.09;5156377;27;42284;-76
2023/07/30 04:22:11;;;;;;;1.30;1.20;;;;;;;20.51;84.83;98385.09;5173880;27;40636;-76
2023/07/30 04:24:39;;;;;;;1.30;1.20;;;;;;;20.50;84.57;98393.34;5157194;27;41307;-76
2023/07/30 04:27:07;;;;;;;1.50;1.30;;;;;;;20.55;84.30;98399.88;5139331;27;43659;-76
2023/07/30 04:48:15;;;;;;;1.20;1.10;;;;;;;20.29;84.97;98424.22;5154938;27;41644;-76
2023/07/30 04:50:43;;;;;;;1.23;1.13;;;;;;;20.29;84.77;98420.69;5139605;27;41222;-76
2023/07/30 04:53:11;;;;;;;1.13;1.03;;;;;;;20.22;84.71;98417.84;5156587;27;43205;-76
2023/07/30 04:55:38;;;;;;;1.13;1.07;;;;;;;20.25;84.77;98420.22;5156898;27;42273;-76
2023/07/30 04:58:06;;;;;;;0.97;0.87;;;;;;;20.24;84.81;98421.22;5139306;27;39790;-76
2023/07/30 05:00:34;;;;;;;1.30;1.20;;;;;;;20.21;84.41;98421.53;5156985;27;41843;-76
2023/07/30 05:03:02;;;;;;;1.50;1.40;;;;;;;20.20;84.18;98422.53;5156557;27;42362;-76
2023/07/30 05:05:31;;;;;;;1.27;1.17;;;;;;;20.31;84.19;98429.44;5139347;27;41489;-76
2023/07/30 05:07:59;;;;;;;1.43;1.30;;;;;;;20.39;83.82;98424.13;5140128;27;40831;-76
2023/07/30 05:10:26;;;;;;;1.37;1.27;;;;;;;20.54;83.86;98421.56;5154918;27;42086;-76
2023/07/30 05:12:54;;;;;;;1.60;1.30;;;;;;;20.66;83.30;98428.28;5138017;27;43160;-76
2023/07/30 05:15:22;;;;;;;1.40;1.30;;;;;;;20.77;82.93;98434.13;5138078;27;41164;-76
2023/07/30 05:17:50;;;;;;;1.33;1.13;;;;;;;20.90;82.64;98428.22;5155702;27;40248;-76
2023/07/30 05:20:18;;;;;;;1.07;0.97;;;;;;;21.00;82.39;98423.53;5155465;27;42032;-76
2023/07/30 05:22:47;;;;;;;2.23;1.20;;;;;;;21.14;81.87;98433.56;5155415;27;42005;-76
2023/07/30 05:25:15;;;;;;;1.40;1.30;;;;;;;21.41;81.03;98436.88;5155036;27;42390;-76
2023/07/30 05:27:42;;;;;;;1.40;1.30;;;;;;;21.70;80.32;98447.84;5155134;27;39844;-76
2023/07/30 05:30:11;;;;;;;0.90;0.90;;;;;;;21.93;79.11;98441.66;5138018;27;40698;-76
2023/07/30 05:32:39;;;;;;;2.10;1.23;;;;;;;22.05;78.44;98437.56;5173715;27;42075;-77
2023/07/30 05:35:07;;;;;;;1.37;1.27;;;;;;;22.14;78.15;98441.88;5173920;27;42409;-76
2023/07/30 05:37:35;;;;;;;1.37;1.23;;;;;;;22.20;77.58;98443.88;5138282;27;40131;-77
2023/07/30 05:40:06;;;;;;;1.30;1.20;;;;;;;22.02;77.58;98409.09;5155067;27;41958;-76
2023/07/30 05:42:34;;;;;;;2.67;1.17;;;;;;;22.26;76.86;98443.16;5156195;27;41734;-75
2023/07/30 05:45:02;;;;;;;1.40;1.30;;;;;;;22.29;76.60;98447.34;5173723;27;43291;-76
2023/07/30 05:47:30;;;;;;;2.13;1.10;;;;;;;22.31;76.63;98446.16;5138455;27;41364;-76
2023/07/30 05:49:57;;;;;;;1.00;1.00;;;;;;;22.37;76.09;98445.44;5138471;27;40338;-76
2023/07/30 05:52:25;;;;;;;1.83;1.30;;;;;;;22.42;75.34;98447.59;5138347;27;42962;-76
2023/07/30 05:54:53;;;;;;;1.97;1.10;;;;;;;22.51;74.76;98447.31;5138769;27;41636;-76
2023/07/30 05:57:23;;;;;;;1.47;1.30;;;;;;;22.76;74.34;98447.16;5138144;27;39493;-77
2023/07/30 05:59:50;;;;;;;1.13;1.03;;;;;;;23.03;73.57;98457.34;5155832;27;41767;-77
2023/07/30 06:02:18;;;;;;;1.47;1.30;;;;;;;23.07;72.81;98453.25;5137912;27;42916;-76
2023/07/30 06:04:46;;;;;;;1.47;1.20;;;;;;;23.27;71.74;98470.59;5156019;27;42536;-77
2023/07/30 06:07:14;;;;;;;1.57;1.10;;;;;;;23.30;71.37;98466.69;5104286;27;40089;-76
2023/07/30 06:09:41;;;;;;;1.10;1.00;;;;;;;23.34;70.88;98473.41;5137387;27;40525;-77
2023/07/30 06:12:09;;;;;;;1.53;1.40;;;;;;;23.36;70.33;98481.34;5155132;27;42827;-76
2023/07/30 06:14:39;;;;;;;1.33;1.23;;;;;;;23.36;70.43;98451.59;5154915;27;41221;-76
2023/07/30 06:17:06;;;;;;;2.50;1.43;;;;;;;23.55;70.46;98461.88;5154572;27;40461;-77
2023/07/30 06:19:34;;;;;;;1.20;1.10;;;;;;;23.67;69.02;98476.59;5154945;27;41071;-76
2023/07/30 06:22:02;;;;;;;1.40;1.30;;;;;;;23.75;68.67;98473.75;5154216;27;41707;-76
2023/07/30 06:24:30;;;;;;;1.07;0.93;;;;;;;23.82;68.83;98474.69;5172240;27;42302;-77
2023/07/30 06:26:58;;;;;;;1.03;1.00;;;;;;;23.93;68.38;98471.50;5154489;27;40852;-77
2023/07/30 06:29:25;;;;;;;0.93;0.90;;;;;;;24.00;67.96;98480.53;5173612;27;41755;-76
2023/07/30 06:31:55;;;;;;;1.40;1.30;;;;;;;24.06;66.95;98475.38;5136944;27;42456;-76
2023/07/30 06:34:23;;;;;;;2.30;1.30;;;;;;;24.11;66.99;98472.97;5137125;27;41326;-77
2023/07/30 06:36:50;;;;;;;1.10;1.00;;;;;;;24.14;66.80;98464.44;5154566;27;40812;-77
2023/07/30 06:39:18;;;;;;;1.10;1.00;;;;;;;24.14;65.95;98445.50;5137285;27;40607;-77
2023/07/30 06:41:46;;;;;;;2.60;1.30;;;;;;;24.26;65.79;98473.75;5155203;27;42271;-77
2023/07/30 06:44:14;;;;;;;1.33;1.23;;;;;;;24.28;65.94;98475.25;5137965;27;41293;-77
2023/07/30 06:46:42;;;;;;;1.13;1.03;;;;;;;24.27;65.74;98467.31;5137103;27;41047;-77
2023/07/30 06:49:12;;;;;;;1.17;1.07;;;;;;;24.18;65.74;98463.03;5121036;27;40815;-76
2023/07/30 06:51:39;;;;;;;1.10;1.00;;;;;;;24.17;66.27;98472.19;5155128;27;42507;-76
2023/07/30 06:54:07;;;;;;;1.40;1.03;;;;;;;24.24;65.94;98479.38;5139864;27;40845;-77
2023/07/30 06:56:35;;;;;;;1.73;1.10;;;;;;;24.23;65.71;98485.00;5158459;27;39894;-77
2023/07/30 06:59:04;;;;;;;1.43;1.10;;;;;;;24.17;65.70;98488.41;5141446;27;42167;-77
2023/07/30 07:01:31;;;;;;;1.20;1.10;;;;;;;24.14;65.72;98477.97;5141467;27;42188;-77
2023/07/30 07:03:59;;;;;;;1.10;1.00;;;;;;;24.22;65.55;98497.69;5158528;27;42044;-77
2023/07/30 07:06:29;;;;;;;1.20;1.10;;;;;;;24.29;64.76;98486.91;5177522;27;41311;-76
2023/07/30 07:08:57;;;;;;;2.07;0.90;;;;;;;24.44;64.42;98495.00;5158165;27;41894;-77
2023/07/30 07:11:25;;;;;;;2.20;1.03;;;;;;;24.61;64.08;98478.28;5156316;27;42831;-77
2023/07/30 07:13:53;;;;;;;1.20;1.10;;;;;;;24.94;63.11;98505.69;5157566;27;41406;-76
2023/07/30 07:16:21;;;;;;;1.40;1.20;;;;;;;25.04;61.78;98513.47;5140232;27;39954;-77
2023/07/30 07:18:49;;;;;;;2.20;1.10;;;;;;;25.02;61.94;98499.28;5176305;27;42750;-77
2023/07/30 07:21:17;;;;;;;1.40;1.30;;;;;;;25.18;61.54;98512.56;5157233;27;41982;-77
2023/07/30 07:23:46;;;;;;;2.27;1.10;;;;;;;25.06;60.71;98495.16;5157404;27;42244;-76
2023/07/30 07:26:14;;;;;;;1.00;1.00;;;;;;;25.18;60.57;98515.28;5156904;27;41173;-77
2023/07/30 07:28:42;;;;;;;1.40;1.30;;;;;;;25.14;59.92;98519.41;5157702;27;40957;-78
2023/07/30 07:31:09;;;;;;;1.27;1.17;;;;;;;25.18;60.21;98515.28;5139786;27;41532;-77
2023/07/30 07:33:38;;;;;;;1.00;1.00;;;;;;;25.25;60.41;98516.13;5174889;27;41523;-77
2023/07/30 07:36:06;;;;;;;1.77;1.03;;;;;;;25.29;60.57;98525.56;5157090;27;39857;-76
2023/07/30 07:38:35;;;;;;;1.47;1.30;;;;;;;25.24;59.94;98514.47;5157561;27;40738;-77
2023/07/30 07:41:04;;;;;;;1.37;1.20;;;;;;;25.45;60.02;98532.56;5157341;27;43266;-77
2023/07/30 07:43:32;;;;;;;1.30;1.20;;;;;;;25.90;58.89;98536.59;5157882;27;42425;-77
2023/07/30 07:46:00;;;;;;;1.67;1.30;;;;;;;26.25;57.63;98529.22;5123119;27;40010;-77
2023/07/30 07:48:27;;;;;;;1.97;1.07;;;;;;;26.61;56.13;98553.38;5157912;27;42966;-77
2023/07/30 07:50:55;;;;;;;1.60;1.40;;;;;;;26.89;55.23;98549.66;5176478;27;42811;-77
2023/07/30 07:53:23;;;;;;;1.17;1.00;;;;;;;27.05;54.80;98541.16;5157685;27;42456;-76
2023/07/30 07:55:51;;;;;;;1.20;1.10;;;;;;;27.49;54.03;98548.66;5123208;27;41137;-77
2023/07/30 07:58:20;;;;;;;1.10;1.10;;;;;;;28.02;52.11;98554.84;5157881;27;42165;-77
2023/07/30 08:00:48;;;;;;;1.67;1.00;;;;;;;28.45;51.51;98554.25;5157162;27;44757;-77
2023/07/30 08:03:16;;;;;;;1.37;1.27;;;;;;;28.56;50.24;98567.22;5157581;27;42581;-77
2023/07/30 08:05:44;;;;;;;1.20;1.10;;;;;;;28.48;49.89;98560.09;5175316;27;41871;-77
2023/07/30 08:08:11;;;;;;;1.17;1.03;;;;;;;28.61;49.93;98570.09;5140193;27;41722;-77
2023/07/30 08:10:40;;;;;;;1.00;1.00;;;;;;;28.60;49.65;98557.53;5138209;27;42486;-77
2023/07/30 08:13:08;;;;;;;1.30;0.93;;;;;;;28.95;49.54;98547.03;5138897;27;42647;-77
2023/07/30 08:15:37;;;;;;;1.10;1.00;;;;;;;29.25;47.77;98522.69;5175307;27;40991;-78
2023/07/30 08:18:05;;;;;;;1.10;1.00;;;;;;;29.76;47.32;98547.00;5156541;27;41659;-77
2023/07/30 08:20:33;;;;;;;0.90;0.90;;;;;;;30.13;45.64;98547.03;5139108;27;41565;-77
2023/07/30 08:23:00;;;;;;;1.10;1.10;;;;;;;30.50;44.76;98543.16;5156051;27;41331;-77
2023/07/30 08:25:28;;;;;;;0.87;0.87;;;;;;;31.27;42.78;98567.94;5156530;27;41817;-77
2023/07/30 08:27:56;;;;;;;1.10;1.00;;;;;;;32.01;41.06;98583.69;5139025;27;41999;-77
2023/07/30 08:30:23;;;;;;;0.90;0.90;;;;;;;32.54;41.07;98581.78;5138742;27;42740;-78
2023/07/30 08:32:53;;;;;;;2.00;1.10;;;;;;;32.50;41.59;98572.41;5173580;27;42026;-77
2023/07/30 08:35:20;;;;;;;0.80;0.80;;;;;;;32.24;41.95;98563.66;5156241;27;40731;-77
2023/07/30 08:37:51;;;;;;;1.07;1.03;;;;;;;32.11;41.26;98551.03;5174945;27;41799;-77
2023/07/30 08:40:21;;;;;;;1.07;1.07;;;;;;;32.38;41.15;98567.78;5175270;27;42733;-77
2023/07/30 08:42:49;;;;;;;1.20;1.10;;;;;;;32.54;39.48;98563.44;5175427;27;42938;-77
2023/07/30 08:45:17;;;;;;;0.90;0.90;;;;;;;32.86;39.69;98557.47;5138993;27;40347;-77
2023/07/30 08:47:45;;;;;;;1.20;1.10;;;;;;;33.15;39.50;98576.38;5156529;27;41078;-77
2023/07/30 08:50:15;;;;;;;1.00;1.00;;;;;;;33.36;39.38;98574.03;5175757;27;42663;-77
2023/07/30 08:52:44;;;;;;;1.03;1.03;;;;;;;33.79;38.75;98576.09;5156829;27;42129;-77
2023/07/30 08:55:12;;;;;;;1.00;1.00;;;;;;;33.76;38.04;98582.09;5156553;27;39840;-77
2023/07/30 08:57:44;;;;;;;1.47;0.97;;;;;;;33.29;38.61;98578.84;5156609;27;41765;-78
2023/07/30 09:00:16;;;;;;;0.90;0.90;;;;;;;32.71;38.31;98578.06;5153770;27;43780;-77
2023/07/30 09:02:48;;;;;;;0.80;0.80;;;;;;;31.95;40.22;98556.41;5156261;27;42032;-77
2023/07/30 09:05:18;;;;;;;1.20;1.10;;;;;;;31.33;40.43;98573.28;5138909;27;40170;-77
2023/07/30 09:07:46;;;;;;;0.87;0.87;;;;;;;30.63;40.70;98575.00;5175167;27;41926;-77
2023/07/30 09:10:15;;;;;;;1.63;1.10;;;;;;;29.98;42.46;98563.78;5154897;27;42973;-77
2023/07/30 09:12:43;;;;;;;0.73;0.73;;;;;;;29.50;42.75;98564.47;5137972;27;41322;-78
2023/07/30 09:15:11;;;;;;;1.00;0.87;;;;;;;28.89;42.16;98573.31;5138350;27;39884;-76
2023/07/30 09:17:38;;;;;;;1.40;0.80;;;;;;;28.45;43.37;98568.72;5154402;27;41521;-76
2023/07/30 09:20:07;;;;;;;0.70;0.70;;;;;;;28.17;44.95;98555.41;5155408;27;42882;-77
2023/07/30 09:22:39;;;;;;;0.80;0.80;;;;;;;27.91;45.62;98552.78;5173977;27;42610;-77
2023/07/30 09:25:08;;;;;;;0.70;0.70;;;;;;;27.60;46.26;98544.47;5138002;27;39744;-76
2023/07/30 09:27:36;;;;;;;0.93;0.93;;;;;;;27.30;47.31;98542.19;5137833;27;42072;-77
2023/07/30 09:30:05;;;;;;;1.37;1.10;;;;;;;26.68;50.52;98539.81;5155013;27;41825;-77
2023/07/30 09:32:34;;;;;;;1.53;1.40;;;;;;;25.92;53.13;98523.69;5173592;27;43381;-78
2023/07/30 09:35:07;;;;;;;1.33;1.00;;;;;;;25.50;57.52;98510.25;5154908;27;41042;-77
2023/07/30 09:37:39;;;;;;;1.23;0.90;;;;;;;25.23;58.58;98511.94;5154698;27;41777;-78
2023/07/30 09:40:09;;;;;;;0.90;0.90;;;;;;;24.92;58.95;98521.28;5155801;27;42151;-77
2023/07/30 09:42:39;;;;;;;1.10;0.90;;;;;;;24.57;59.65;98528.47;5138583;27;41882;-77
2023/07/30 09:45:17;;;;;;;1.00;0.90;;;;;;;24.30;59.32;98529.19;5155762;27;40066;-77
2023/07/30 09:47:47;;;;;;;1.03;0.93;;;;;;;24.30;60.28;98521.91;5173209;27;40898;-77
2023/07/30 09:50:18;;;;;;;0.77;0.77;;;;;;;24.31;60.35;98511.94;5139086;27;42913;-77
2023/07/30 09:52:47;;;;;;;1.43;0.70;;;;;;;24.48;61.34;98534.19;5155615;27;42090;-77
2023/07/30 09:55:18;;;;;;;0.80;0.80;;;;;;;24.46;60.17;98531.66;5138693;27;39832;-77
2023/07/30 09:57:46;;;;;;;1.37;1.00;;;;;;;24.48;59.76;98534.19;5138448;27;41091;-77
2023/07/30 10:00:14;;;;;;;1.47;1.00;;;;;;;24.49;60.10;98509.59;5155719;27;43012;-77
2023/07/30 10:02:47;;;;;;;0.90;0.90;;;;;;;24.83;60.21;98529.75;5138693;27;41151;-77
2023/07/30 10:05:17;;;;;;;0.73;0.73;;;;;;;25.03;59.00;98533.47;5153332;27;41924;-77
2023/07/30 10:07:50;;;;;;;0.70;0.70;;;;;;;25.24;58.74;98530.72;5138352;27;41763;-77
2023/07/30 10:10:19;;;;;;;0.50;0.50;;;;;;;25.41;57.73;98532.13;5137423;27;42578;-77
2023/07/30 10:12:48;;;;;;;0.77;0.77;;;;;;;25.59;57.80;98537.00;5154537;27;42263;-77
2023/07/30 10:15:23;;;;;;;0.70;0.70;;;;;;;25.80;57.87;98538.84;5137354;27;39787;-77
2023/07/30 10:17:52;;;;;;;0.77;0.70;;;;;;;25.96;56.59;98540.41;5154500;27;41077;-77
2023/07/30 10:20:23;;;;;;;0.63;0.63;;;;;;;26.19;56.66;98534.66;5173390;27;42772;-78
2023/07/30 10:22:56;;;;;;;1.37;0.87;;;;;;;26.49;55.35;98541.44;5137144;27;41083;-77
2023/07/30 10:25:31;;;;;;;0.90;0.90;;;;;;;27.07;54.80;98541.78;5137159;27;40730;-77
2023/07/30 10:28:01;;;;;;;0.60;0.60;;;;;;;27.61;54.08;98540.69;5135736;27;41747;-77
2023/07/30 10:30:33;;;;;;;1.47;0.70;;;;;;;28.14;52.62;98544.94;5154447;27;41585;-77
2023/07/30 10:33:03;;;;;;;0.90;0.90;;;;;;;28.81;51.43;98554.47;5171977;27;42567;-77
2023/07/30 10:35:40;;;;;;;1.13;1.10;;;;;;;29.45;51.08;98550.66;5137490;27;40262;-77
2023/07/30 10:38:24;;;;;;;0.73;0.73;;;;;;;29.94;49.35;98560.63;5153785;27;41417;-77
2023/07/30 10:41:03;;;;;;;0.97;0.93;;;;;;;29.95;49.70;98539.63;5137303;27;42161;-76
2023/07/30 10:43:32;;;;;;;1.10;1.00;;;;;;;29.75;48.70;98522.66;5155408;27;42323;-77
2023/07/30 10:45:59;;;;;;;1.20;1.10;;;;;;;29.75;49.19;98534.41;5154971;27;41888;-77
2023/07/30 10:48:35;;;;;;;0.90;0.90;;;;;;;29.47;48.44;98537.63;5169698;27;41458;-77
2023/07/30 10:51:04;;;;;;;0.97;0.97;;;;;;;29.27;49.20;98542.41;5172589;27;42220;-77
2023/07/30 10:53:35;;;;;;;1.07;0.97;;;;;;;29.30;50.25;98531.06;5136897;27;41103;-76
2023/07/30 10:56:04;;;;;;;1.10;1.10;;;;;;;29.24;50.08;98529.19;5153799;27;40007;-78
2023/07/30 10:58:33;;;;;;;0.90;0.90;;;;;;;29.45;49.93;98515.19;5137450;27;40867;-77
2023/07/30 11:01:03;;;;;;;1.60;1.20;;;;;;;29.61;47.23;98539.16;5154858;27;43438;-77
2023/07/30 11:03:33;;;;;;;1.50;1.33;;;;;;;29.54;46.61;98546.59;5155179;27;42241;-76
2023/07/30 11:06:02;;;;;;;2.43;1.20;;;;;;;29.45;47.59;98542.47;5154579;27;41323;-76
2023/07/30 11:08:36;;;;;;;1.20;1.10;;;;;;;29.55;47.52;98528.31;5137026;27;40778;-79
2023/07/30 11:11:04;;;;;;;2.57;1.10;;;;;;;29.39;47.94;98532.47;5171582;27;43189;-77
2023/07/30 11:13:37;;;;;;;1.40;1.30;;;;;;;29.21;47.97;98537.81;5153981;27;42215;-77
2023/07/30 11:16:05;;;;;;;1.10;1.10;;;;;;;29.34;47.15;98532.25;5136497;27;41108;-77
2023/07/30 11:18:34;;;;;;;1.13;1.03;;;;;;;29.91;46.37;98543.91;5153873;27;41952;-77
2023/07/30 11:21:06;;;;;;;1.20;1.10;;;;;;;30.63;44.95;98553.13;5136029;27;42882;-79
2023/07/30 11:23:36;;;;;;;1.30;1.20;;;;;;;30.75;41.90;98569.56;5154109;27;41236;-77
2023/07/30 11:26:06;;;;;;;1.30;1.17;;;;;;;30.68;43.24;98567.75;5136605;27;39903;-77
2023/07/30 11:28:35;;;;;;;1.20;1.17;;;;;;;31.12;42.09;98575.75;5153546;27;41782;-79
2023/07/30 11:31:05;;;;;;;1.73;1.57;;;;;;;31.31;40.86;98580.91;5153666;27;41700;-78
2023/07/30 11:33:35;;;;;;;8.40;1.50;;;;;;;30.93;39.32;98611.34;5172347;27;41651;-78
2023/07/30 11:36:04;;;;;;;2.43;1.10;;;;;;;30.48;37.92;98621.81;5153594;27;40995;-77
2023/07/30 11:38:33;;;;;;;1.03;0.90;;;;;;;30.68;37.76;98605.19;5136152;27;40659;-78
2023/07/30 11:41:03;;;;;;;1.60;0.87;;;;;;;29.95;37.51;98621.53;5139844;27;42987;-77
2023/07/30 11:43:31;;;;;;;1.13;0.87;;;;;;;29.79;38.03;98628.44;5157532;27;41824;-77
2023/07/30 11:46:13;;;;;;;1.47;0.93;;;;;;;30.07;38.15;98644.34;5157782;27;41969;-77
2023/07/30 11:48:43;;;;;;;0.77;0.73;;;;;;;30.03;37.70;98643.16;5174639;27;42709;-78
2023/07/30 11:51:22;;;;;;;0.93;0.80;;;;;;;29.96;38.14;98645.09;5176474;27;42835;-77
2023/07/30 11:53:52;;;;;;;0.80;0.80;;;;;;;29.82;38.67;98655.28;5174591;27;43367;-77
2023/07/30 11:56:24;;;;;;;0.80;0.80;;;;;;;29.81;37.96;98655.50;5140157;27;40013;-77
2023/07/30 11:58:54;;;;;;;1.30;0.90;;;;;;;29.60;38.15;98657.56;5140352;27;41063;-77
2023/07/30 12:01:25;;;;;;;0.60;0.60;;;;;;;29.80;37.96;98653.81;5140605;27;43049;-79
2023/07/30 12:03:55;;;;;;;0.80;0.60;;;;;;;29.81;37.87;98671.88;5140050;27;43476;-77
2023/07/30 12:06:23;;;;;;;0.80;0.80;;;;;;;29.44;38.79;98669.03;5154769;27;40969;-77
2023/07/30 12:08:51;;;;;;;0.70;0.70;;;;;;;29.50;39.25;98665.44;5156501;27;41883;-77
2023/07/30 12:11:20;;;;;;;0.60;0.60;;;;;;;30.89;37.38;98677.69;5155453;27;43003;-76
2023/07/30 12:13:50;;;;;;;0.60;0.60;;;;;;;32.30;35.99;98686.00;5138865;27;41186;-77